createdAt,value
2017-06-14T00:01:45.105Z,16.67
2017-06-14T00:04:12.630Z,16.81
2017-06-14T00:06:40.179Z,16.86
2017-06-14T00:09:07.695Z,16.56
2017-06-14T00:11:35.280Z,16.32
2017-06-14T00:14:02.800Z,16.43
2017-06-14T00:16:30.378Z,16.62
2017-06-14T00:18:57.955Z,16.32
2017-06-14T00:21:25.489Z,16.11
2017-06-14T00:23:53.127Z,16.31
2017-06-14T00:26:20.647Z,16.28
2017-06-14T00:28:48.215Z,16.12
2017-06-14T00:31:15.699Z,16.15
2017-06-14T00:33:43.279Z,16.42
2017-06-14T00:36:10.803Z,16.49
2017-06-14T00:38:38.340Z,16.59
2017-06-14T00:41:05.975Z,16.16
2017-06-14T00:43:33.620Z,15.96
2017-06-14T00:46:01.195Z,15.87
2017-06-14T00:48:28.805Z,15.65
2017-06-14T00:50:56.359Z,15.64
2017-06-14T00:53:23.890Z,15.51
2017-06-14T00:55:51.759Z,15.62
2017-06-14T00:58:19.359Z,15.59
2017-06-14T01:00:47.004Z,15.52
2017-06-14T01:03:14.544Z,15.54
2017-06-14T01:05:42.109Z,15.42
2017-06-14T01:08:09.682Z,15.40
2017-06-14T01:10:37.199Z,15.62
2017-06-14T01:13:04.726Z,15.62
2017-06-14T01:15:32.326Z,15.54
2017-06-14T01:17:59.879Z,15.53
2017-06-14T01:20:27.532Z,15.47
2017-06-14T01:22:55.055Z,15.47
2017-06-14T01:25:22.599Z,15.36
2017-06-14T01:27:50.205Z,15.63
2017-06-14T01:30:17.719Z,15.74
2017-06-14T01:32:45.262Z,15.85
2017-06-14T01:35:12.799Z,15.96
2017-06-14T01:37:40.450Z,15.92
2017-06-14T01:40:07.987Z,15.97
2017-06-14T01:42:35.566Z,15.74
2017-06-14T01:45:03.123Z,15.54
2017-06-14T01:47:30.632Z,15.59
2017-06-14T01:52:32.091Z,15.36
2017-06-14T01:54:59.653Z,15.48
2017-06-14T01:57:27.156Z,15.50
2017-06-14T01:59:54.776Z,15.75
2017-06-14T02:02:22.410Z,15.80
2017-06-14T02:04:49.954Z,15.64
2017-06-14T02:07:17.533Z,15.59
2017-06-14T02:09:45.098Z,15.57
2017-06-14T02:12:12.679Z,15.53
2017-06-14T02:14:40.291Z,15.65
2017-06-14T02:17:07.879Z,15.64
2017-06-14T02:19:35.394Z,15.57
2017-06-14T02:22:02.967Z,15.56
2017-06-14T02:24:30.488Z,15.18
2017-06-14T02:26:58.004Z,14.94
2017-06-14T02:29:25.578Z,14.78
2017-06-14T02:31:53.091Z,14.65
2017-06-14T02:34:20.651Z,15.03
2017-06-14T02:36:48.187Z,14.99
2017-06-14T02:39:15.840Z,14.92
2017-06-14T02:41:43.383Z,14.98
2017-06-14T02:44:10.996Z,14.76
2017-06-14T02:46:38.512Z,14.82
2017-06-14T02:49:06.051Z,14.78
2017-06-14T02:51:33.610Z,14.80
2017-06-14T02:54:01.115Z,14.71
2017-06-14T02:56:28.695Z,14.80
2017-06-14T02:58:56.202Z,14.73
2017-06-14T03:01:23.706Z,14.61
2017-06-14T03:03:51.268Z,14.64
2017-06-14T03:06:18.803Z,14.58
2017-06-14T03:08:46.559Z,14.40
2017-06-14T03:11:14.066Z,14.61
2017-06-14T03:13:41.711Z,14.69
2017-06-14T03:16:09.271Z,14.71
2017-06-14T03:18:36.817Z,14.88
2017-06-14T03:21:04.376Z,15.04
2017-06-14T03:23:31.920Z,15.02
2017-06-14T03:25:59.426Z,15.04
2017-06-14T03:28:26.983Z,15.01
2017-06-14T03:30:54.512Z,14.80
2017-06-14T03:33:22.187Z,14.48
2017-06-14T03:35:49.767Z,14.19
2017-06-14T03:38:17.399Z,14.54
2017-06-14T03:40:45.000Z,14.68
2017-06-14T03:43:12.531Z,14.67
2017-06-14T03:45:40.190Z,14.71
2017-06-14T03:48:07.747Z,14.79
2017-06-14T03:50:35.314Z,14.62
2017-06-14T03:53:02.831Z,14.71
2017-06-14T03:55:30.375Z,14.80
2017-06-14T03:57:57.887Z,14.87
2017-06-14T04:00:25.472Z,14.65
2017-06-14T04:02:53.064Z,14.83
2017-06-14T04:05:20.645Z,14.91
2017-06-14T04:07:48.359Z,14.97
2017-06-14T04:10:15.890Z,15.06
2017-06-14T04:12:43.638Z,15.08
2017-06-14T04:15:11.163Z,14.90
2017-06-14T04:17:38.703Z,14.87
2017-06-14T04:20:06.287Z,14.93
2017-06-14T04:22:33.840Z,14.94
2017-06-14T04:25:01.547Z,15.07
2017-06-14T04:27:29.063Z,15.03
2017-06-14T04:29:56.703Z,15.17
2017-06-14T04:32:24.254Z,15.22
2017-06-14T04:34:51.760Z,15.06
2017-06-14T04:37:19.333Z,15.04
2017-06-14T04:39:46.855Z,15.04
2017-06-14T04:42:14.431Z,15.19
2017-06-14T04:44:41.956Z,15.01
2017-06-14T04:47:09.478Z,15.21
2017-06-14T04:49:37.040Z,15.13
2017-06-14T04:52:04.546Z,15.38
2017-06-14T04:54:32.123Z,15.40
2017-06-14T04:56:59.647Z,15.51
2017-06-14T04:59:27.213Z,15.57
2017-06-14T05:01:54.853Z,15.70
2017-06-14T05:04:22.391Z,15.71
2017-06-14T05:06:49.954Z,15.60
2017-06-14T05:09:17.499Z,15.64
2017-06-14T05:11:45.071Z,15.55
2017-06-14T05:14:12.590Z,15.44
2017-06-14T05:16:40.181Z,15.60
2017-06-14T05:19:07.706Z,15.65
2017-06-14T05:21:35.223Z,15.81
2017-06-14T05:24:02.788Z,15.91
2017-06-14T05:26:30.323Z,15.96
2017-06-14T05:28:57.881Z,16.05
2017-06-14T05:31:25.427Z,16.10
2017-06-14T05:33:53.019Z,16.18
2017-06-14T05:36:20.547Z,16.25
2017-06-14T05:38:48.074Z,16.20
2017-06-14T05:41:15.647Z,16.11
2017-06-14T05:43:43.191Z,16.27
2017-06-14T05:46:10.748Z,16.30
2017-06-14T05:48:38.279Z,16.23
2017-06-14T05:51:05.847Z,16.31
2017-06-14T05:53:33.384Z,16.40
2017-06-14T05:56:00.910Z,16.41
2017-06-14T05:58:28.459Z,16.48
2017-06-14T06:00:55.993Z,16.53
2017-06-14T06:03:23.571Z,16.56
2017-06-14T06:05:51.099Z,16.60
2017-06-14T06:08:18.666Z,16.57
2017-06-14T06:10:46.192Z,16.66
2017-06-14T06:13:13.776Z,16.76
2017-06-14T06:15:41.296Z,16.80
2017-06-14T06:18:08.893Z,16.91
2017-06-14T06:20:36.443Z,16.99
2017-06-14T06:23:03.954Z,16.98
2017-06-14T06:25:31.536Z,17.00
2017-06-14T06:27:59.062Z,17.07
2017-06-14T06:30:27.179Z,17.12
2017-06-14T06:32:54.764Z,17.20
2017-06-14T06:35:22.299Z,17.27
2017-06-14T06:37:49.878Z,17.29
2017-06-14T06:40:19.030Z,17.37
2017-06-14T06:42:46.555Z,17.38
2017-06-14T06:45:14.111Z,17.41
2017-06-14T06:47:41.623Z,17.47
2017-06-14T06:50:09.227Z,17.53
2017-06-14T06:52:36.743Z,17.58
2017-06-14T06:55:04.342Z,17.68
2017-06-14T06:57:31.887Z,17.69
2017-06-14T06:59:59.398Z,17.74
2017-06-14T07:02:26.952Z,17.70
2017-06-14T07:04:54.466Z,17.78
2017-06-14T07:07:22.054Z,17.95
2017-06-14T07:09:49.551Z,18.00
2017-06-14T07:12:17.191Z,18.05
2017-06-14T07:14:44.699Z,18.15
2017-06-14T07:17:12.236Z,18.25
2017-06-14T07:19:39.795Z,18.31
2017-06-14T07:22:07.303Z,18.35
2017-06-14T07:24:34.886Z,18.42
2017-06-14T07:27:02.398Z,18.47
2017-06-14T07:29:29.961Z,18.55
2017-06-14T07:31:57.595Z,18.58
2017-06-14T07:34:25.144Z,18.54
2017-06-14T07:36:52.663Z,18.53
2017-06-14T07:39:20.180Z,18.62
2017-06-14T07:44:22.242Z,18.72
2017-06-14T07:46:49.759Z,18.80
2017-06-14T07:49:17.332Z,18.86
2017-06-14T07:51:44.861Z,18.95
2017-06-14T07:54:12.483Z,19.17
2017-06-14T07:56:39.991Z,19.14
2017-06-14T07:59:07.541Z,19.10
2017-06-14T08:01:35.111Z,19.16
2017-06-14T08:04:02.665Z,19.22
2017-06-14T08:06:30.263Z,19.20
2017-06-14T08:08:57.848Z,19.23
2017-06-14T08:11:25.414Z,19.28
2017-06-14T08:13:53.068Z,19.42
2017-06-14T08:16:20.593Z,19.46
2017-06-14T08:18:48.241Z,19.58
2017-06-14T08:21:15.827Z,19.69
2017-06-14T08:23:43.334Z,19.66
2017-06-14T08:26:10.880Z,19.74
2017-06-14T08:28:38.419Z,19.68
2017-06-14T08:31:05.978Z,19.86
2017-06-14T08:33:33.494Z,19.99
2017-06-14T08:36:01.066Z,19.98
2017-06-14T08:38:28.579Z,20.05
2017-06-14T08:40:56.090Z,20.07
2017-06-14T08:43:23.651Z,20.08
2017-06-14T08:45:51.160Z,20.04
2017-06-14T08:48:18.726Z,20.04
2017-06-14T08:50:46.274Z,20.06
2017-06-14T08:53:13.784Z,20.28
2017-06-14T08:55:41.355Z,20.44
2017-06-14T08:58:08.900Z,20.48
2017-06-14T09:00:36.459Z,20.55
2017-06-14T09:03:03.981Z,20.37
2017-06-14T09:05:31.587Z,20.46
2017-06-14T09:07:59.097Z,20.82
2017-06-14T09:10:26.656Z,20.83
2017-06-14T09:12:54.176Z,20.95
2017-06-14T09:15:21.734Z,21.00
2017-06-14T09:17:49.300Z,21.06
2017-06-14T09:20:16.854Z,20.92
2017-06-14T09:22:44.502Z,20.97
2017-06-14T09:25:12.028Z,21.05
2017-06-14T09:27:39.563Z,20.95
2017-06-14T09:30:07.114Z,20.91
2017-06-14T09:32:34.632Z,21.08
2017-06-14T09:35:02.322Z,21.08
2017-06-14T09:37:29.859Z,21.12
2017-06-14T09:39:57.395Z,21.20
2017-06-14T09:42:24.967Z,21.26
2017-06-14T09:44:52.495Z,21.32
2017-06-14T09:47:20.076Z,21.60
2017-06-14T09:49:47.646Z,21.94
2017-06-14T09:52:15.182Z,22.16
2017-06-14T09:54:42.793Z,22.22
2017-06-14T09:57:10.369Z,22.31
2017-06-14T09:59:38.800Z,22.34
2017-06-14T10:02:06.343Z,22.19
2017-06-14T10:04:33.922Z,22.15
2017-06-14T10:07:01.435Z,22.31
2017-06-14T10:09:28.954Z,22.49
2017-06-14T10:11:56.681Z,22.51
2017-06-14T10:14:24.198Z,22.49
2017-06-14T10:16:51.771Z,22.56
2017-06-14T10:19:19.292Z,22.73
2017-06-14T10:21:46.832Z,22.78
2017-06-14T10:24:14.387Z,22.92
2017-06-14T10:26:41.902Z,23.11
2017-06-14T10:29:09.454Z,23.28
2017-06-14T10:31:36.971Z,23.37
2017-06-14T10:34:04.563Z,23.17
2017-06-14T10:36:32.152Z,23.38
2017-06-14T10:38:59.689Z,23.14
2017-06-14T10:41:27.356Z,23.48
2017-06-14T10:43:54.871Z,23.75
2017-06-14T10:46:22.431Z,23.73
2017-06-14T10:48:49.940Z,23.97
2017-06-14T10:51:17.448Z,24.17
2017-06-14T10:53:45.015Z,24.12
2017-06-14T10:56:12.523Z,23.97
2017-06-14T10:58:40.086Z,24.20
2017-06-14T11:01:07.602Z,24.47
2017-06-14T11:03:35.107Z,24.66
2017-06-14T11:06:02.668Z,24.57
2017-06-14T11:08:30.207Z,24.77
2017-06-14T11:10:57.911Z,24.82
2017-06-14T11:13:25.466Z,24.97
2017-06-14T11:15:53.022Z,25.08
2017-06-14T11:18:20.571Z,25.05
2017-06-14T11:20:48.071Z,24.83
2017-06-14T11:23:15.636Z,24.86
2017-06-14T11:25:43.145Z,25.07
2017-06-14T11:28:10.658Z,25.22
2017-06-14T11:30:38.204Z,25.53
2017-06-14T11:33:05.799Z,25.68
2017-06-14T11:35:33.354Z,25.86
2017-06-14T11:38:00.860Z,25.97
2017-06-14T11:40:28.397Z,26.11
2017-06-14T11:42:55.967Z,26.22
2017-06-14T11:45:23.491Z,26.11
2017-06-14T11:47:51.048Z,25.55
2017-06-14T11:50:18.578Z,25.67
2017-06-14T11:52:46.150Z,25.47
2017-06-14T11:55:13.664Z,25.12
2017-06-14T11:57:41.191Z,25.21
2017-06-14T12:00:08.736Z,25.73
2017-06-14T12:02:36.251Z,26.09
2017-06-14T12:05:03.796Z,26.38
2017-06-14T12:07:31.357Z,26.59
2017-06-14T12:09:58.935Z,26.68
2017-06-14T12:12:26.450Z,26.74
2017-06-14T12:14:53.965Z,26.62
2017-06-14T12:17:21.534Z,26.15
2017-06-14T12:19:49.059Z,26.06
2017-06-14T12:22:16.607Z,26.52
2017-06-14T12:24:44.159Z,26.76
2017-06-14T12:27:11.718Z,26.92
2017-06-14T12:29:39.227Z,26.98
2017-06-14T12:32:06.779Z,27.02
2017-06-14T12:34:34.380Z,27.15
2017-06-14T12:37:02.275Z,27.09
2017-06-14T12:39:29.804Z,27.26
2017-06-14T12:41:57.479Z,27.33
2017-06-14T12:44:25.038Z,27.03
2017-06-14T12:46:52.707Z,27.34
2017-06-14T12:49:20.275Z,27.41
2017-06-14T12:51:47.811Z,27.45
2017-06-14T12:54:15.330Z,27.58
2017-06-14T12:56:42.916Z,27.60
2017-06-14T12:59:10.435Z,27.26
2017-06-14T13:01:38.087Z,27.51
2017-06-14T13:04:05.588Z,27.46
2017-06-14T13:06:33.124Z,27.35
2017-06-14T13:09:00.665Z,27.32
2017-06-14T13:11:28.206Z,27.39
2017-06-14T13:13:55.752Z,27.40
2017-06-14T13:16:23.291Z,27.63
2017-06-14T13:18:50.850Z,27.79
2017-06-14T13:21:18.525Z,27.88
2017-06-14T13:23:46.066Z,27.74
2017-06-14T13:26:13.691Z,28.26
2017-06-14T13:28:41.205Z,28.62
2017-06-14T13:31:08.797Z,28.79
2017-06-14T13:33:36.364Z,28.85
2017-06-14T13:36:03.920Z,28.35
2017-06-14T13:38:31.529Z,28.32
2017-06-14T13:40:59.056Z,28.60
2017-06-14T13:43:26.626Z,28.71
2017-06-14T13:45:54.207Z,28.44
2017-06-14T13:48:21.776Z,28.71
2017-06-14T13:50:49.311Z,28.30
2017-06-14T13:53:16.906Z,28.24
2017-06-14T13:55:44.564Z,28.66
2017-06-14T13:58:12.111Z,28.80
2017-06-14T14:00:39.691Z,29.05
2017-06-14T14:03:07.202Z,29.31
2017-06-14T14:05:34.773Z,29.25
2017-06-14T14:08:02.308Z,29.83
2017-06-14T14:10:29.916Z,29.67
2017-06-14T14:12:57.455Z,29.50
2017-06-14T14:15:25.069Z,29.35
2017-06-14T14:17:52.694Z,29.59
2017-06-14T14:20:20.271Z,29.54
2017-06-14T14:22:47.887Z,29.91
2017-06-14T14:25:15.421Z,29.67
2017-06-14T14:27:42.983Z,29.85
2017-06-14T14:30:10.521Z,30.67
2017-06-14T14:32:38.096Z,31.29
2017-06-14T14:35:05.622Z,30.75
2017-06-14T14:37:33.127Z,30.67
2017-06-14T14:40:00.688Z,30.19
2017-06-14T14:42:28.196Z,29.75
2017-06-14T14:44:55.996Z,30.43
2017-06-14T14:47:23.514Z,30.38
2017-06-14T14:49:51.032Z,30.93
2017-06-14T14:52:18.618Z,31.47
2017-06-14T14:54:46.173Z,31.73
2017-06-14T14:57:13.846Z,31.90
2017-06-14T14:59:41.378Z,31.29
2017-06-14T15:02:08.993Z,30.33
2017-06-14T15:04:36.486Z,31.25
2017-06-14T15:07:04.071Z,31.17
2017-06-14T15:09:31.648Z,31.05
2017-06-14T15:11:59.272Z,30.17
2017-06-14T15:14:26.854Z,29.79
2017-06-14T15:16:54.388Z,29.54
2017-06-14T15:19:21.966Z,29.58
2017-06-14T15:21:49.487Z,30.52
2017-06-14T15:24:17.011Z,30.30
2017-06-14T15:26:44.560Z,29.82
2017-06-14T15:29:12.103Z,30.82
2017-06-14T15:31:39.622Z,31.29
2017-06-14T15:34:07.170Z,30.70
2017-06-14T15:36:34.715Z,31.11
2017-06-14T15:39:02.248Z,30.71
2017-06-14T15:41:29.801Z,31.77
2017-06-14T15:43:57.333Z,31.68
2017-06-14T15:46:24.883Z,32.31
2017-06-14T15:48:52.391Z,32.88
2017-06-14T15:51:20.051Z,31.96
2017-06-14T15:53:47.722Z,31.98
2017-06-14T15:56:15.367Z,32.60
2017-06-14T15:58:42.926Z,32.86
2017-06-14T16:01:10.442Z,32.93
2017-06-14T16:03:38.129Z,32.61
2017-06-14T16:06:05.684Z,32.72
2017-06-14T16:08:33.276Z,32.81
2017-06-14T16:11:00.860Z,31.20
2017-06-14T16:13:28.508Z,31.50
2017-06-14T16:15:56.066Z,31.12
2017-06-14T16:18:23.628Z,31.50
2017-06-14T16:20:51.213Z,32.12
2017-06-14T16:23:18.771Z,31.01
2017-06-14T16:25:46.348Z,30.59
2017-06-14T16:28:13.974Z,30.54
2017-06-14T16:30:41.767Z,30.83
2017-06-14T16:33:09.299Z,31.58
2017-06-14T16:35:36.832Z,31.52
2017-06-14T16:38:04.403Z,31.98
2017-06-14T16:40:31.987Z,32.11
2017-06-14T16:42:59.639Z,32.31
2017-06-14T16:45:27.169Z,32.49
2017-06-14T16:47:54.718Z,32.62
2017-06-14T16:50:22.235Z,32.54
2017-06-14T16:52:49.842Z,32.54
2017-06-14T16:55:17.384Z,32.34
2017-06-14T16:57:44.929Z,31.38
2017-06-14T17:00:12.458Z,31.71
2017-06-14T17:02:40.063Z,31.38
2017-06-14T17:05:07.613Z,31.49
2017-06-14T17:07:35.203Z,31.70
2017-06-14T17:10:02.788Z,31.67
2017-06-14T17:12:30.307Z,31.76
2017-06-14T17:14:57.964Z,31.69
2017-06-14T17:17:25.492Z,31.93
2017-06-14T17:19:53.011Z,31.77
2017-06-14T17:22:20.564Z,30.97
2017-06-14T17:24:48.297Z,31.26
2017-06-14T17:27:15.823Z,31.70
2017-06-14T17:29:43.383Z,31.98
2017-06-14T17:32:10.985Z,31.85
2017-06-14T17:34:38.507Z,32.02
2017-06-14T17:37:06.059Z,31.48
2017-06-14T17:39:33.640Z,30.70
2017-06-14T17:42:01.144Z,30.90
2017-06-14T17:44:28.707Z,30.59
2017-06-14T17:46:56.283Z,30.94
2017-06-14T17:49:23.851Z,30.59
2017-06-14T17:51:51.390Z,30.76
2017-06-14T17:54:18.903Z,31.16
2017-06-14T17:56:46.475Z,30.53
2017-06-14T17:59:14.015Z,30.73
2017-06-14T18:01:41.572Z,30.83
2017-06-14T18:04:09.120Z,30.88
2017-06-14T18:06:36.826Z,31.34
2017-06-14T18:09:04.344Z,31.38
2017-06-14T18:11:31.923Z,31.10
2017-06-14T18:13:59.446Z,30.49
2017-06-14T18:16:26.957Z,30.03
2017-06-14T18:18:54.540Z,30.86
2017-06-14T18:21:22.052Z,30.32
2017-06-14T18:23:49.659Z,30.11
2017-06-14T18:26:17.226Z,30.13
2017-06-14T18:28:44.879Z,29.92
2017-06-14T18:31:12.455Z,29.25
2017-06-14T18:33:40.011Z,29.56
2017-06-14T18:36:07.661Z,29.46
2017-06-14T18:38:35.216Z,29.08
2017-06-14T18:41:02.796Z,28.98
2017-06-14T18:43:30.319Z,29.18
2017-06-14T18:45:57.920Z,28.92
2017-06-14T18:48:25.451Z,28.53
2017-06-14T18:50:52.968Z,28.34
2017-06-14T18:53:20.599Z,28.10
2017-06-14T18:55:48.142Z,28.36
2017-06-14T18:58:15.766Z,28.18
2017-06-14T19:00:43.463Z,28.01
2017-06-14T19:03:11.067Z,28.06
2017-06-14T19:05:38.653Z,28.43
2017-06-14T19:08:06.248Z,28.05
2017-06-14T19:10:33.848Z,27.95
2017-06-14T19:13:01.385Z,27.54
2017-06-14T19:15:29.025Z,27.57
2017-06-14T19:17:56.559Z,27.44
2017-06-14T19:20:24.087Z,27.71
2017-06-14T19:22:51.669Z,27.36
2017-06-14T19:25:19.265Z,27.22
2017-06-14T19:27:46.954Z,26.87
2017-06-14T19:30:14.471Z,26.71
2017-06-14T19:32:47.488Z,26.62
2017-06-14T19:35:15.046Z,26.74
2017-06-14T19:37:42.599Z,26.47
2017-06-14T19:40:10.163Z,26.30
2017-06-14T19:42:37.725Z,26.12
2017-06-14T19:45:05.317Z,25.89
2017-06-14T19:47:32.840Z,26.11
2017-06-14T19:50:00.391Z,26.04
2017-06-14T19:52:27.947Z,25.89
2017-06-14T19:54:55.512Z,25.90
2017-06-14T19:57:23.092Z,25.77
2017-06-14T19:59:50.641Z,25.77
2017-06-14T20:02:18.188Z,25.63
2017-06-14T20:04:45.735Z,25.54
2017-06-14T20:07:13.362Z,25.65
2017-06-14T20:09:40.943Z,25.49
2017-06-14T20:12:08.476Z,25.61
2017-06-14T20:14:36.129Z,25.43
2017-06-14T20:17:03.785Z,25.23
2017-06-14T20:19:31.317Z,25.41
2017-06-14T20:21:58.916Z,25.37
2017-06-14T20:24:26.446Z,25.17
2017-06-14T20:26:54.100Z,25.13
2017-06-14T20:29:21.634Z,24.98
2017-06-14T20:31:49.168Z,24.83
2017-06-14T20:34:16.759Z,24.78
2017-06-14T20:36:44.297Z,24.72
2017-06-14T20:39:11.859Z,24.59
2017-06-14T20:41:39.391Z,24.62
2017-06-14T20:44:06.987Z,24.56
2017-06-14T20:46:34.507Z,24.36
2017-06-14T20:49:02.041Z,24.25
2017-06-14T20:51:29.729Z,24.40
2017-06-14T20:53:57.259Z,24.37
2017-06-14T20:56:24.840Z,24.30
2017-06-14T20:58:52.376Z,24.20
2017-06-14T21:01:19.963Z,24.23
2017-06-14T21:03:47.507Z,24.13
2017-06-14T21:06:15.043Z,24.02
2017-06-14T21:08:42.614Z,24.12
2017-06-14T21:11:10.141Z,24.07
2017-06-14T21:13:37.700Z,23.91
2017-06-14T21:16:05.240Z,23.95
2017-06-14T21:18:32.843Z,23.90
2017-06-14T21:21:00.359Z,23.92
2017-06-14T21:23:27.871Z,23.83
2017-06-14T21:25:55.444Z,23.78
2017-06-14T21:28:23.068Z,23.60
2017-06-14T21:30:50.644Z,23.69
2017-06-14T21:33:18.166Z,23.76
2017-06-14T21:35:45.708Z,23.72
2017-06-14T21:38:13.255Z,23.82
2017-06-14T21:40:40.786Z,23.83
2017-06-14T21:43:08.362Z,23.91
2017-06-14T21:45:35.903Z,23.67
2017-06-14T21:48:03.462Z,23.49
2017-06-14T21:50:30.975Z,23.31
2017-06-14T21:52:58.558Z,23.22
2017-06-14T21:55:26.123Z,23.39
2017-06-14T21:57:53.695Z,23.33
2017-06-14T22:00:21.334Z,23.15
2017-06-14T22:02:48.905Z,23.35
2017-06-14T22:05:16.489Z,23.51
2017-06-14T22:07:44.004Z,23.73
2017-06-14T22:10:11.663Z,23.52
2017-06-14T22:12:39.210Z,23.48
2017-06-14T22:15:06.815Z,23.36
2017-06-14T22:17:34.377Z,23.48
2017-06-14T22:20:02.003Z,23.37
2017-06-14T22:22:29.629Z,23.32
2017-06-14T22:24:57.176Z,23.22
2017-06-14T22:27:24.743Z,23.08
2017-06-14T22:29:52.255Z,23.04
2017-06-14T22:32:19.880Z,23.19
2017-06-14T22:34:47.404Z,23.04
2017-06-14T22:37:15.026Z,22.97
2017-06-14T22:39:42.589Z,22.98
2017-06-14T22:42:10.119Z,23.19
2017-06-14T22:44:37.828Z,23.29
2017-06-14T22:47:05.375Z,23.38
2017-06-14T22:49:33.102Z,23.47
2017-06-14T22:52:00.690Z,23.51
2017-06-14T22:54:28.331Z,23.53
2017-06-14T22:56:55.857Z,23.45
2017-06-14T22:59:23.584Z,23.45
2017-06-14T23:01:51.145Z,23.40
2017-06-14T23:04:18.659Z,23.29
2017-06-14T23:06:46.235Z,23.25
2017-06-14T23:09:13.743Z,23.15
2017-06-14T23:11:41.272Z,23.09
2017-06-14T23:14:08.831Z,23.01
2017-06-14T23:16:36.336Z,22.95
2017-06-14T23:19:03.877Z,22.95
2017-06-14T23:21:31.443Z,23.01
2017-06-14T23:23:59.022Z,23.01
2017-06-14T23:26:26.543Z,23.02
2017-06-14T23:28:54.123Z,22.90
2017-06-14T23:31:21.627Z,22.80
2017-06-14T23:33:49.177Z,22.79
2017-06-14T23:36:16.736Z,22.74
2017-06-14T23:38:44.252Z,22.72
2017-06-14T23:41:11.836Z,22.69
2017-06-14T23:43:39.356Z,22.70
2017-06-14T23:46:06.923Z,22.69
2017-06-14T23:48:34.444Z,22.70
2017-06-14T23:51:01.952Z,22.72
2017-06-14T23:53:29.513Z,22.55
2017-06-14T23:55:57.022Z,22.64
2017-06-14T23:58:24.619Z,22.71
